createdAt,value
2023-04-10T00:00:39.369Z,1.50
2023-04-10T00:03:09.209Z,3.07
2023-04-10T00:05:37.683Z,2.50
2023-04-10T00:08:06.101Z,2.53
2023-04-10T00:10:34.361Z,2.00
2023-04-10T00:13:03.651Z,1.67
2023-04-10T00:15:31.889Z,3.63
2023-04-10T00:18:00.200Z,2.57
2023-04-10T00:20:29.954Z,3.57
2023-04-10T00:22:58.226Z,2.03
2023-04-10T00:25:26.697Z,1.70
2023-04-10T00:27:55.075Z,2.43
2023-04-10T00:30:23.310Z,2.07
2023-04-10T00:32:51.570Z,2.30
2023-04-10T00:35:19.908Z,4.50
2023-04-10T00:37:50.293Z,1.67
2023-04-10T00:40:18.552Z,2.60
2023-04-10T00:42:46.806Z,2.20
2023-04-10T00:45:15.047Z,2.93
2023-04-10T00:47:43.339Z,2.57
2023-04-10T00:50:12.233Z,2.73
2023-04-10T00:52:40.483Z,3.90
2023-04-10T00:55:11.057Z,2.63
2023-04-10T00:57:39.391Z,2.90
2023-04-10T01:00:08.175Z,3.70
2023-04-10T01:02:36.617Z,2.63
2023-04-10T01:05:05.040Z,2.80
2023-04-10T01:07:37.441Z,3.97
2023-04-10T01:10:06.945Z,2.43
2023-04-10T01:12:42.454Z,2.00
2023-04-10T01:15:11.752Z,2.20
2023-04-10T01:17:42.734Z,3.63
2023-04-10T01:20:11.483Z,2.87
2023-04-10T01:22:40.894Z,2.23
2023-04-10T01:25:27.108Z,2.93
2023-04-10T01:28:01.165Z,1.53
2023-04-10T01:30:31.161Z,4.83
2023-04-10T01:33:00.502Z,1.73
2023-04-10T01:35:29.211Z,2.03
2023-04-10T01:37:57.550Z,1.60
2023-04-10T01:40:25.755Z,2.30
2023-04-10T01:42:54.903Z,1.33
2023-04-10T01:45:23.773Z,2.30
2023-04-10T01:47:53.493Z,3.50
2023-04-10T01:50:23.499Z,1.30
2023-04-10T01:52:52.262Z,4.27
2023-04-10T01:55:21.564Z,2.90
2023-04-10T01:57:49.935Z,2.33
2023-04-10T02:00:18.287Z,2.63
2023-04-10T02:02:46.699Z,2.37
2023-04-10T02:05:16.496Z,2.77
2023-04-10T02:07:46.489Z,5.93
2023-04-10T02:10:15.539Z,1.63
2023-04-10T02:12:45.248Z,2.57
2023-04-10T02:15:13.480Z,3.07
2023-04-10T02:17:41.887Z,2.80
2023-04-10T02:20:10.309Z,2.23
2023-04-10T02:22:39.929Z,2.40
2023-04-10T02:25:08.772Z,2.33
2023-04-10T02:27:37.463Z,1.87
2023-04-10T02:30:06.063Z,1.93
2023-04-10T02:32:34.420Z,3.00
2023-04-10T02:35:03.062Z,2.70
2023-04-10T02:37:31.347Z,1.70
2023-04-10T02:40:01.127Z,4.07
2023-04-10T02:42:29.424Z,2.87
2023-04-10T02:44:57.678Z,1.97
2023-04-10T02:47:25.984Z,2.00
2023-04-10T02:49:54.362Z,2.93
2023-04-10T02:52:23.164Z,2.13
2023-04-10T02:54:51.887Z,4.90
2023-04-10T02:57:21.613Z,2.67
2023-04-10T02:59:52.009Z,2.10
2023-04-10T03:02:20.376Z,2.50
2023-04-10T03:04:48.805Z,2.80
2023-04-10T03:07:17.139Z,3.07
2023-04-10T03:09:45.406Z,2.00
2023-04-10T03:12:13.662Z,2.37
2023-04-10T03:14:43.259Z,3.23
2023-04-10T03:17:12.171Z,3.40
2023-04-10T03:19:40.386Z,3.43
2023-04-10T03:22:10.083Z,3.73
2023-04-10T03:24:39.992Z,3.20
2023-04-10T03:27:08.264Z,1.80
2023-04-10T03:29:36.713Z,2.73
2023-04-10T03:32:06.579Z,1.90
2023-04-10T03:34:34.786Z,5.47
2023-04-10T03:37:03.360Z,5.70
2023-04-10T03:39:31.603Z,3.73
2023-04-10T03:41:59.836Z,2.97
2023-04-10T03:44:28.085Z,2.50
2023-04-10T03:46:56.380Z,2.23
2023-04-10T03:49:25.994Z,2.00
2023-04-10T03:51:54.205Z,2.40
2023-04-10T03:54:22.475Z,2.23
2023-04-10T03:56:50.866Z,1.63
2023-04-10T03:59:19.116Z,1.93
2023-04-10T04:01:47.450Z,2.67
2023-04-10T04:04:16.030Z,2.43
2023-04-10T04:06:45.886Z,1.70
2023-04-10T04:09:14.108Z,3.03
2023-04-10T04:11:42.695Z,1.77
2023-04-10T04:14:11.227Z,2.13
2023-04-10T04:16:39.501Z,3.13
2023-04-10T04:19:07.781Z,2.07
2023-04-10T04:21:36.115Z,2.40
2023-04-10T04:24:05.781Z,1.40
2023-04-10T04:26:34.034Z,2.20
2023-04-10T04:29:02.309Z,2.27
2023-04-10T04:31:32.623Z,2.20
2023-04-10T04:34:01.132Z,3.23
2023-04-10T04:36:29.358Z,1.63
2023-04-10T04:38:57.577Z,2.13
2023-04-10T04:41:27.239Z,1.73
2023-04-10T04:43:55.777Z,1.57
2023-04-10T04:46:24.342Z,2.37
2023-04-10T04:48:52.609Z,1.50
2023-04-10T04:51:20.893Z,1.77
2023-04-10T04:53:49.110Z,2.23
2023-04-10T04:56:17.336Z,2.33
2023-04-10T04:58:46.979Z,1.10
2023-04-10T05:01:15.748Z,1.17
2023-04-10T05:03:44.199Z,1.90
2023-04-10T05:06:12.551Z,2.07
2023-04-10T05:08:41.238Z,1.33
2023-04-10T05:11:09.464Z,2.37
2023-04-10T05:13:37.710Z,1.60
2023-04-10T05:16:07.869Z,1.87
2023-04-10T05:18:36.562Z,3.23
2023-04-10T05:21:04.934Z,1.40
2023-04-10T05:23:33.194Z,1.30
2023-04-10T05:26:01.409Z,2.90
2023-04-10T05:28:29.686Z,2.00
2023-04-10T05:30:58.084Z,0.87
2023-04-10T05:33:27.738Z,1.80
2023-04-10T05:35:56.650Z,1.20
2023-04-10T05:38:25.502Z,1.00
2023-04-10T05:40:53.781Z,1.80
2023-04-10T05:43:22.453Z,2.03
2023-04-10T05:45:50.687Z,1.43
2023-04-10T05:48:18.929Z,1.70
2023-04-10T05:50:48.560Z,2.20
2023-04-10T05:53:16.804Z,1.23
2023-04-10T05:55:45.033Z,1.33
2023-04-10T05:58:13.311Z,2.57
2023-04-10T06:00:41.538Z,2.30
2023-04-10T06:03:09.859Z,1.10
2023-04-10T06:05:38.229Z,1.40
2023-04-10T06:08:07.883Z,1.33
2023-04-10T06:10:36.317Z,1.53
2023-04-10T06:13:04.576Z,1.23
2023-04-10T06:15:32.776Z,1.90
2023-04-10T06:18:01.105Z,1.10
2023-04-10T06:20:29.370Z,1.17
2023-04-10T06:22:57.724Z,1.30
2023-04-10T06:25:27.481Z,1.17
2023-04-10T06:27:55.734Z,0.73
2023-04-10T06:30:23.963Z,1.63
2023-04-10T06:32:52.286Z,3.13
2023-04-10T06:35:21.295Z,1.97
2023-04-10T06:37:49.496Z,2.23
2023-04-10T06:40:17.776Z,1.43
2023-04-10T06:42:47.379Z,1.30
2023-04-10T06:45:15.694Z,3.47
2023-04-10T06:47:44.101Z,0.70
2023-04-10T06:50:12.534Z,0.93
2023-04-10T06:52:40.766Z,1.40
2023-04-10T06:55:09.680Z,1.47
2023-04-10T06:57:37.948Z,1.50
2023-04-10T07:00:09.480Z,1.00
2023-04-10T07:02:37.868Z,1.43
2023-04-10T07:05:06.383Z,0.87
2023-04-10T07:07:34.644Z,0.93
2023-04-10T07:10:02.884Z,0.90
2023-04-10T07:12:31.137Z,0.70
2023-04-10T07:14:59.459Z,1.67
2023-04-10T07:17:29.118Z,0.97
2023-04-10T07:19:57.399Z,0.80
2023-04-10T07:22:25.647Z,0.90
2023-04-10T07:24:53.881Z,0.90
2023-04-10T07:27:23.173Z,0.93
2023-04-10T07:29:51.417Z,1.43
2023-04-10T07:32:19.732Z,0.60
2023-04-10T07:34:49.468Z,0.70
2023-04-10T07:37:18.097Z,0.67
2023-04-10T07:39:46.375Z,0.93
2023-04-10T07:42:14.603Z,0.70
2023-04-10T07:44:42.893Z,3.90
2023-04-10T07:47:11.437Z,0.70
2023-04-10T07:49:39.683Z,2.87
2023-04-10T07:52:09.330Z,1.10
2023-04-10T07:54:37.789Z,2.20
2023-04-10T07:57:06.045Z,1.60
2023-04-10T07:59:34.346Z,1.90
2023-04-10T08:02:02.675Z,2.47
2023-04-10T08:04:31.271Z,2.07
2023-04-10T08:06:59.627Z,3.10
2023-04-10T08:09:29.211Z,1.70
2023-04-10T08:11:58.356Z,1.70
2023-04-10T08:14:26.618Z,1.60
2023-04-10T08:16:54.907Z,1.63
2023-04-10T08:19:23.193Z,1.93
2023-04-10T08:21:51.536Z,1.63
2023-04-10T08:24:22.121Z,1.20
2023-04-10T08:26:51.756Z,1.73
2023-04-10T08:29:20.007Z,2.17
2023-04-10T08:31:48.319Z,2.70
2023-04-10T08:34:16.635Z,1.43
2023-04-10T08:36:44.897Z,1.27
2023-04-10T08:39:13.155Z,1.43
2023-04-10T08:41:42.499Z,2.53
2023-04-10T08:44:12.101Z,1.77
2023-04-10T08:46:40.329Z,1.27
2023-04-10T08:49:08.588Z,2.37
2023-04-10T08:51:38.711Z,1.57
2023-04-10T08:54:07.940Z,1.00
2023-04-10T08:56:36.810Z,2.97
2023-04-10T08:59:05.047Z,3.17
2023-04-10T09:01:36.394Z,1.37
2023-04-10T09:04:04.896Z,1.67
2023-04-10T09:06:33.228Z,1.33
2023-04-10T09:12:00.743Z,1.67
2023-04-10T09:14:30.052Z,2.50
2023-04-10T09:17:13.914Z,1.77
2023-04-10T09:19:42.265Z,1.17
2023-04-10T09:22:10.554Z,1.77
2023-04-10T09:24:39.111Z,3.73
2023-04-10T09:27:07.390Z,1.17
2023-04-10T09:29:43.149Z,2.07
2023-04-10T09:32:12.847Z,0.80
2023-04-10T09:34:53.793Z,0.97
2023-04-10T09:37:22.754Z,1.33
2023-04-10T09:39:51.171Z,1.70
2023-04-10T09:42:19.428Z,1.93
2023-04-10T09:44:47.677Z,0.97
2023-04-10T09:47:21.403Z,2.67
2023-04-10T09:49:50.037Z,1.03
2023-04-10T09:52:21.361Z,1.73
2023-04-10T09:54:49.649Z,1.17
2023-04-10T09:57:19.145Z,1.03
2023-04-10T09:59:49.149Z,2.97
2023-04-10T10:02:17.510Z,1.10
2023-04-10T10:04:48.039Z,1.67
2023-04-10T10:07:16.812Z,1.73
2023-04-10T10:09:45.293Z,1.00
2023-04-10T10:12:13.922Z,2.10
2023-04-10T10:14:44.486Z,2.07
2023-04-10T10:17:12.735Z,3.77
2023-04-10T10:19:43.219Z,5.33
2023-04-10T10:22:12.801Z,1.77
2023-04-10T10:24:41.371Z,1.33
2023-04-10T10:27:11.602Z,1.97
2023-04-10T10:29:41.131Z,2.20
2023-04-10T10:32:09.425Z,3.33
2023-04-10T10:34:37.740Z,1.60
2023-04-10T10:37:06.005Z,1.27
2023-04-10T10:39:36.361Z,3.43
2023-04-10T10:42:11.037Z,1.17
2023-04-10T10:44:42.145Z,1.57
2023-04-10T10:47:12.549Z,1.87
2023-04-10T10:49:58.738Z,3.23
2023-04-10T10:52:44.714Z,2.57
2023-04-10T10:55:32.567Z,2.23
2023-04-10T10:58:02.323Z,1.30
2023-04-10T11:00:49.009Z,2.10
2023-04-10T11:03:30.097Z,1.23
2023-04-10T11:05:59.439Z,1.53
2023-04-10T11:08:37.283Z,1.17
2023-04-10T11:11:05.998Z,1.17
2023-04-10T11:13:35.808Z,2.00
2023-04-10T11:16:04.340Z,3.70
2023-04-10T11:19:02.638Z,9.73
2023-04-10T11:21:38.672Z,8.33
2023-04-10T11:24:07.282Z,8.63
2023-04-10T11:26:39.619Z,7.43
2023-04-10T11:29:09.228Z,5.50
2023-04-10T11:31:37.556Z,3.90
2023-04-10T11:34:06.229Z,4.03
2023-04-10T11:36:34.558Z,2.13
2023-04-10T11:39:05.714Z,3.80
2023-04-10T11:41:34.303Z,3.20
2023-04-10T11:44:03.101Z,1.33
2023-04-10T11:46:32.746Z,1.70
2023-04-10T11:49:01.591Z,2.20
2023-04-10T11:51:29.936Z,2.23
2023-04-10T11:54:08.019Z,1.30
2023-04-10T11:56:36.562Z,2.60
2023-04-10T11:59:07.866Z,1.53
2023-04-10T12:01:37.718Z,1.03
2023-04-10T12:04:07.960Z,0.87
2023-04-10T12:06:36.348Z,1.33
2023-04-10T12:09:14.091Z,2.50
2023-04-10T12:11:49.750Z,1.13
2023-04-10T12:14:17.986Z,0.83
2023-04-10T12:16:47.677Z,3.17
2023-04-10T12:19:16.330Z,5.93
2023-04-10T12:21:44.809Z,1.10
2023-04-10T12:24:13.187Z,0.97
2023-04-10T12:26:48.597Z,1.30
2023-04-10T12:29:16.836Z,1.17
2023-04-10T12:31:45.172Z,1.30
2023-04-10T12:34:14.823Z,1.37
2023-04-10T12:36:43.117Z,1.03
2023-04-10T12:39:23.466Z,1.00
2023-04-10T12:41:51.956Z,0.93
2023-04-10T12:44:20.609Z,1.10
2023-04-10T12:46:48.897Z,1.13
2023-04-10T12:49:18.721Z,0.60
2023-04-10T12:51:47.129Z,0.90
2023-04-10T12:54:28.812Z,2.03
2023-04-10T12:56:57.729Z,2.00
2023-04-10T12:59:26.558Z,1.60
2023-04-10T13:01:54.974Z,1.17
2023-04-10T13:04:24.716Z,1.13
2023-04-10T13:06:53.632Z,2.00
2023-04-10T13:09:22.348Z,1.63
2023-04-10T13:11:51.786Z,1.10
2023-04-10T13:14:20.392Z,1.17
2023-04-10T13:16:48.975Z,2.80
2023-04-10T13:19:17.307Z,1.60
2023-04-10T13:21:46.898Z,2.03
2023-04-10T13:24:16.765Z,1.10
2023-04-10T13:26:45.534Z,1.60
2023-04-10T13:29:13.809Z,1.07
2023-04-10T13:31:42.146Z,1.07
2023-04-10T13:34:10.396Z,0.93
2023-04-10T13:36:38.768Z,0.60
2023-04-10T13:39:08.492Z,0.60
2023-04-10T13:41:37.077Z,3.13
2023-04-10T13:44:05.463Z,1.13
2023-04-10T13:46:34.149Z,0.90
2023-04-10T13:49:02.467Z,3.83
2023-04-10T13:51:31.624Z,1.97
2023-04-10T13:53:59.941Z,1.20
2023-04-10T13:56:30.213Z,3.83
2023-04-10T13:58:58.487Z,1.27
2023-04-10T14:01:27.016Z,2.17
2023-04-10T14:03:55.461Z,1.30
2023-04-10T14:06:23.748Z,3.20
2023-04-10T14:08:52.220Z,1.20
2023-04-10T14:11:20.664Z,1.63
2023-04-10T14:13:50.291Z,3.63
2023-04-10T14:16:18.573Z,1.40
2023-04-10T14:18:46.829Z,2.20
2023-04-10T14:21:15.091Z,1.30
2023-04-10T14:23:43.469Z,1.70
2023-04-10T14:26:11.731Z,2.20
2023-04-10T14:28:40.011Z,2.37
2023-04-10T14:31:10.066Z,1.30
2023-04-10T14:33:38.356Z,1.97
2023-04-10T14:36:07.791Z,1.20
2023-04-10T14:38:36.841Z,1.60
2023-04-10T14:41:05.182Z,2.20
2023-04-10T14:43:33.598Z,1.20
2023-04-10T14:46:01.891Z,1.67
2023-04-10T14:48:31.693Z,1.53
2023-04-10T14:51:01.578Z,1.77
2023-04-10T14:53:29.822Z,1.40
2023-04-10T14:55:58.103Z,1.00
2023-04-10T14:58:26.409Z,1.10
2023-04-10T15:00:54.691Z,1.47
2023-04-10T15:03:25.181Z,1.13
2023-04-10T15:06:01.581Z,1.10
2023-04-10T15:08:29.816Z,1.37
2023-04-10T15:10:58.065Z,1.47
2023-04-10T15:13:26.446Z,1.40
2023-04-10T15:15:55.372Z,1.07
2023-04-10T15:18:25.426Z,1.23
2023-04-10T15:20:55.274Z,1.63
2023-04-10T15:23:24.884Z,1.13
2023-04-10T15:25:53.571Z,1.40
2023-04-10T15:28:21.845Z,1.03
2023-04-10T15:30:50.620Z,1.03
2023-04-10T15:33:19.084Z,1.30
2023-04-10T15:35:48.727Z,2.63
2023-04-10T15:38:16.997Z,1.10
2023-04-10T15:40:46.593Z,1.20
2023-04-10T15:43:14.869Z,1.27
2023-04-10T15:45:43.153Z,0.77
2023-04-10T15:48:11.374Z,1.50
2023-04-10T15:50:40.398Z,1.13
2023-04-10T15:53:08.668Z,2.43
2023-04-10T15:55:40.523Z,1.93
2023-04-10T15:58:10.226Z,3.23
2023-04-10T16:00:38.467Z,1.40
2023-04-10T16:03:07.341Z,0.73
2023-04-10T16:05:35.763Z,1.37
2023-04-10T16:08:04.141Z,1.40
2023-04-10T16:10:32.587Z,0.90
2023-04-10T16:13:05.148Z,1.00
2023-04-10T16:15:37.122Z,4.27
2023-04-10T16:18:05.887Z,2.40
2023-04-10T16:20:34.188Z,2.30
2023-04-10T16:23:02.480Z,0.83
2023-04-10T16:25:31.135Z,1.27
2023-04-10T16:27:59.413Z,1.70
2023-04-10T16:30:27.707Z,0.80
2023-04-10T16:32:57.339Z,1.30
2023-04-10T16:35:25.692Z,1.10
2023-04-10T16:37:54.034Z,1.10
2023-04-10T16:40:22.293Z,2.00
2023-04-10T16:42:50.604Z,1.03
2023-04-10T16:45:19.003Z,2.73
2023-04-10T16:47:47.364Z,1.03
2023-04-10T16:50:18.647Z,1.20
2023-04-10T16:52:46.942Z,1.33
2023-04-10T16:55:15.440Z,1.40
2023-04-10T16:57:44.337Z,1.87
2023-04-10T17:00:13.066Z,1.00
2023-04-10T17:02:42.783Z,1.43
2023-04-10T17:05:13.652Z,0.70
2023-04-10T17:07:44.917Z,1.20
2023-04-10T17:10:13.459Z,0.77
2023-04-10T17:12:42.478Z,1.87
2023-04-10T17:15:11.036Z,1.07
2023-04-10T17:17:39.362Z,2.33
2023-04-10T17:20:09.807Z,2.50
2023-04-10T17:22:39.267Z,1.77
2023-04-10T17:25:09.509Z,3.67
2023-04-10T17:27:40.292Z,2.03
2023-04-10T17:30:12.428Z,1.50
2023-04-10T17:32:41.836Z,2.50
2023-04-10T17:35:10.483Z,3.47
2023-04-10T17:37:38.742Z,6.60
2023-04-10T17:40:07.577Z,1.73
2023-04-10T17:42:37.225Z,3.33
2023-04-10T17:45:05.803Z,3.30
2023-04-10T17:47:34.124Z,3.83
2023-04-10T17:50:02.389Z,3.43
2023-04-10T17:52:30.660Z,3.03
2023-04-10T17:54:58.921Z,2.93
2023-04-10T17:57:29.230Z,2.90
2023-04-10T17:59:59.006Z,4.17
2023-04-10T18:02:27.299Z,2.47
2023-04-10T18:04:55.753Z,2.97
2023-04-10T18:07:24.277Z,4.20
2023-04-10T18:09:52.506Z,4.97
2023-04-10T18:12:21.021Z,3.40
2023-04-10T18:14:49.640Z,2.13
2023-04-10T18:17:19.247Z,3.40
2023-04-10T18:19:47.616Z,2.63
2023-04-10T18:22:16.022Z,2.63
2023-04-10T18:24:44.244Z,2.90
2023-04-10T18:27:12.485Z,4.83
2023-04-10T18:29:41.101Z,2.93
2023-04-10T18:32:09.520Z,6.07
2023-04-10T18:34:39.206Z,3.60
2023-04-10T18:37:09.660Z,2.70
2023-04-10T18:39:38.547Z,3.20
2023-04-10T18:42:08.955Z,3.33
2023-04-10T18:44:37.188Z,5.00
2023-04-10T18:47:05.607Z,4.13
2023-04-10T18:49:33.992Z,3.90
2023-04-10T18:52:03.630Z,2.73
2023-04-10T18:54:31.995Z,5.80
2023-04-10T18:57:00.205Z,3.27
2023-04-10T18:59:28.517Z,4.00
2023-04-10T19:01:57.208Z,3.00
2023-04-10T19:04:25.859Z,2.27
2023-04-10T19:06:54.164Z,3.33
2023-04-10T19:09:23.799Z,2.00
2023-04-10T19:11:52.041Z,4.40
2023-04-10T19:14:20.385Z,5.17
2023-04-10T19:16:48.663Z,7.53
2023-04-10T19:19:16.961Z,6.57
2023-04-10T19:21:45.416Z,4.83
2023-04-10T19:24:13.715Z,5.13
2023-04-10T19:26:43.322Z,5.83
2023-04-10T19:29:13.566Z,4.77
2023-04-10T19:31:42.160Z,2.73
2023-04-10T19:34:11.389Z,4.03
2023-04-10T19:36:39.982Z,6.17
2023-04-10T19:39:08.680Z,5.90
2023-04-10T19:41:41.741Z,5.30
2023-04-10T19:44:11.385Z,3.33
2023-04-10T19:46:39.723Z,3.10
2023-04-10T19:49:08.059Z,2.90
2023-04-10T19:51:36.335Z,3.60
2023-04-10T19:54:04.574Z,2.73
2023-04-10T19:56:34.831Z,5.37
2023-04-10T19:59:03.206Z,4.53
2023-04-10T20:01:32.869Z,3.27
2023-04-10T20:04:01.370Z,2.50
2023-04-10T20:06:29.705Z,3.87
2023-04-10T20:08:57.954Z,9.10
2023-04-10T20:11:30.459Z,3.43
2023-04-10T20:13:58.740Z,2.97
2023-04-10T20:16:27.243Z,4.23
2023-04-10T20:18:57.269Z,5.47
2023-04-10T20:21:27.059Z,4.57
2023-04-10T20:23:57.424Z,7.63
2023-04-10T20:26:26.232Z,6.00
2023-04-10T20:28:54.850Z,5.73
2023-04-10T20:31:23.317Z,5.37
2023-04-10T20:33:51.607Z,4.20
2023-04-10T20:36:21.200Z,5.23
2023-04-10T20:38:49.507Z,6.70
2023-04-10T20:41:17.716Z,6.47
2023-04-10T20:43:45.963Z,6.33
2023-04-10T20:46:14.266Z,6.77
2023-04-10T20:48:42.507Z,5.27
2023-04-10T20:51:11.013Z,4.33
2023-04-10T20:53:40.662Z,3.43
2023-04-10T20:56:09.086Z,2.63
2023-04-10T20:58:37.334Z,4.60
2023-04-10T21:01:05.659Z,3.97
2023-04-10T21:03:34.128Z,3.63
2023-04-10T21:06:04.360Z,5.43
2023-04-10T21:08:32.665Z,5.57
2023-04-10T21:11:02.282Z,3.37
2023-04-10T21:13:30.518Z,5.83
2023-04-10T21:15:58.786Z,7.23
2023-04-10T21:18:27.025Z,3.57
2023-04-10T21:20:55.327Z,3.20
2023-04-10T21:23:23.558Z,3.37
2023-04-10T21:25:52.898Z,2.77
2023-04-10T21:28:22.536Z,3.63
2023-04-10T21:30:50.774Z,2.97
2023-04-10T21:33:19.086Z,4.57
2023-04-10T21:35:47.342Z,2.87
2023-04-10T21:38:15.609Z,4.87
2023-04-10T21:40:43.862Z,4.43
2023-04-10T21:43:12.081Z,7.07
2023-04-10T21:45:41.767Z,3.73
2023-04-10T21:48:10.062Z,8.80
2023-04-10T21:50:38.299Z,4.13
2023-04-10T21:53:06.563Z,1.93
2023-04-10T21:55:34.785Z,4.10
2023-04-10T21:58:03.039Z,5.47
2023-04-10T22:00:31.602Z,2.80
2023-04-10T22:03:01.378Z,9.07
2023-04-10T22:05:29.763Z,2.50
2023-04-10T22:07:57.999Z,2.63
2023-04-10T22:10:26.225Z,3.93
2023-04-10T22:12:54.479Z,2.77
2023-04-10T22:15:22.810Z,2.83
2023-04-10T22:17:51.103Z,2.20
2023-04-10T22:20:20.778Z,1.63
2023-04-10T22:22:49.058Z,2.57
2023-04-10T22:25:17.414Z,3.97
2023-04-10T22:27:45.799Z,4.10
2023-04-10T22:30:14.382Z,2.37
2023-04-10T22:32:42.682Z,2.00
2023-04-10T22:35:11.027Z,4.00
2023-04-10T22:37:40.707Z,3.43
2023-04-10T22:40:09.490Z,2.50
2023-04-10T22:42:37.786Z,2.10
2023-04-10T22:45:06.449Z,8.77
2023-04-10T22:47:34.727Z,2.50
2023-04-10T22:50:02.983Z,6.33
2023-04-10T22:52:31.245Z,2.67
2023-04-10T22:55:00.836Z,1.90
2023-04-10T22:57:29.080Z,1.60
2023-04-10T22:59:59.398Z,1.73
2023-04-10T23:02:29.034Z,1.63
2023-04-10T23:04:57.832Z,2.60
2023-04-10T23:07:27.776Z,2.03
2023-04-10T23:09:56.069Z,2.97
2023-04-10T23:12:26.323Z,5.70
2023-04-10T23:14:54.580Z,4.80
2023-04-10T23:17:22.814Z,17.33
2023-04-10T23:19:51.106Z,9.57
2023-04-10T23:22:19.353Z,19.67
2023-04-10T23:24:47.846Z,15.00
2023-04-10T23:27:16.088Z,17.73
2023-04-10T23:29:45.663Z,10.13
2023-04-10T23:32:13.883Z,16.33
2023-04-10T23:34:42.109Z,20.33
2023-04-10T23:37:10.351Z,12.10
2023-04-10T23:39:38.603Z,13.67
2023-04-10T23:42:06.876Z,17.97
2023-04-10T23:44:35.148Z,13.03
2023-04-10T23:47:04.966Z,12.50
2023-04-10T23:49:34.849Z,12.43
2023-04-10T23:52:03.090Z,10.83
2023-04-10T23:54:31.320Z,12.07
2023-04-10T23:56:59.538Z,13.47
2023-04-10T23:59:27.830Z,8.37
